createdAt,value
2023-01-27T00:00:28.692Z,99546.56
2023-01-27T00:02:58.461Z,99552.41
2023-01-27T00:05:26.741Z,99553.50
2023-01-27T00:07:58.784Z,99549.22
2023-01-27T00:10:30.452Z,99544.91
2023-01-27T00:13:18.353Z,99545.69
2023-01-27T00:15:46.747Z,99547.53
2023-01-27T00:18:16.783Z,99544.56
2023-01-27T00:21:02.010Z,99550.00
2023-01-27T00:23:49.896Z,99536.63
2023-01-27T00:26:20.133Z,99542.88
2023-01-27T00:28:49.329Z,99550.84
2023-01-27T00:31:36.214Z,99541.13
2023-01-27T00:34:10.421Z,99548.91
2023-01-27T00:36:40.450Z,99544.38
2023-01-27T00:39:10.162Z,99545.25
2023-01-27T00:41:40.945Z,99542.72
2023-01-27T00:44:14.018Z,99542.63
2023-01-27T00:46:42.363Z,99544.38
2023-01-27T00:49:13.629Z,99539.16
2023-01-27T00:51:41.955Z,99551.34
2023-01-27T00:54:10.400Z,99547.06
2023-01-27T00:56:39.040Z,99547.97
2023-01-27T00:59:08.111Z,99543.50
2023-01-27T01:01:36.767Z,99544.31
2023-01-27T01:04:09.486Z,99552.19
2023-01-27T01:06:39.442Z,99546.09
2023-01-27T01:09:07.701Z,99547.84
2023-01-27T01:11:35.728Z,99552.97
2023-01-27T01:14:04.029Z,99559.16
2023-01-27T01:16:32.421Z,99556.34
2023-01-27T01:19:00.721Z,99545.00
2023-01-27T01:21:29.321Z,99554.44
2023-01-27T01:24:00.231Z,99561.59
2023-01-27T01:26:28.684Z,99559.81
2023-01-27T01:28:57.216Z,99551.06
2023-01-27T01:31:25.360Z,99557.41
2023-01-27T01:33:53.632Z,99555.56
2023-01-27T01:36:22.882Z,99566.03
2023-01-27T01:38:55.813Z,99562.44
2023-01-27T01:41:26.471Z,99553.69
2023-01-27T01:43:55.439Z,99559.03
2023-01-27T01:46:24.132Z,99561.50
2023-01-27T01:48:56.546Z,99556.75
2023-01-27T01:51:33.694Z,99560.66
2023-01-27T01:54:07.357Z,99560.78
2023-01-27T01:56:49.302Z,99564.34
2023-01-27T01:59:28.540Z,99560.91
2023-01-27T02:02:00.252Z,99557.31
2023-01-27T02:04:36.357Z,99558.22
2023-01-27T02:07:10.735Z,99557.03
2023-01-27T02:09:40.658Z,99562.47
2023-01-27T02:12:11.964Z,99560.66
2023-01-27T02:14:44.051Z,99554.72
2023-01-27T02:17:14.808Z,99557.22
2023-01-27T02:19:51.416Z,99559.03
2023-01-27T02:22:26.890Z,99558.91
2023-01-27T02:25:04.053Z,99564.38
2023-01-27T02:27:33.784Z,99566.03
2023-01-27T02:30:01.952Z,99552.78
2023-01-27T02:32:30.219Z,99557.25
2023-01-27T02:34:58.958Z,99554.91
2023-01-27T02:37:27.803Z,99558.28
2023-01-27T02:40:00.724Z,99547.00
2023-01-27T02:42:28.968Z,99555.88
2023-01-27T02:44:58.884Z,99554.81
2023-01-27T02:47:27.955Z,99554.03
2023-01-27T02:49:56.429Z,99554.81
2023-01-27T02:52:24.631Z,99553.03
2023-01-27T02:54:53.009Z,99552.84
2023-01-27T02:57:21.391Z,99552.22
2023-01-27T02:59:49.751Z,99559.16
2023-01-27T03:02:23.136Z,99565.03
2023-01-27T03:04:51.635Z,99567.81
2023-01-27T03:07:19.982Z,99570.47
2023-01-27T03:09:48.233Z,99574.00
2023-01-27T03:12:22.745Z,99574.16
2023-01-27T03:15:09.452Z,99580.94
2023-01-27T03:17:57.519Z,99583.34
2023-01-27T03:20:25.770Z,99576.34
2023-01-27T03:22:53.981Z,99591.00
2023-01-27T03:25:22.426Z,99584.19
2023-01-27T03:27:50.637Z,99585.06
2023-01-27T03:30:19.128Z,99587.31
2023-01-27T03:32:48.924Z,99584.72
2023-01-27T03:35:18.095Z,99580.28
2023-01-27T03:38:03.973Z,99583.84
2023-01-27T03:40:51.809Z,99588.22
2023-01-27T03:43:38.508Z,99586.50
2023-01-27T03:46:22.564Z,99583.97
2023-01-27T03:48:55.375Z,99588.28
2023-01-27T03:51:28.053Z,99590.94
2023-01-27T03:53:56.491Z,99587.25
2023-01-27T03:56:26.396Z,99588.34
2023-01-27T03:58:54.868Z,99582.91
2023-01-27T04:01:24.991Z,99586.94
2023-01-27T04:04:12.505Z,99589.84
2023-01-27T04:06:56.587Z,99581.94
2023-01-27T04:09:26.701Z,99588.91
2023-01-27T04:11:56.905Z,99578.22
2023-01-27T04:14:29.175Z,99576.38
2023-01-27T04:16:59.904Z,99583.41
2023-01-27T04:19:30.084Z,99584.50
2023-01-27T04:22:00.744Z,99582.78
2023-01-27T04:24:29.214Z,99575.03
2023-01-27T04:26:59.097Z,99578.72
2023-01-27T04:29:32.043Z,99574.91
2023-01-27T04:32:00.495Z,99574.22
2023-01-27T04:34:30.589Z,99577.56
2023-01-27T04:36:58.918Z,99579.53
2023-01-27T04:39:27.763Z,99574.25
2023-01-27T04:41:57.377Z,99588.22
2023-01-27T04:44:26.343Z,99590.75
2023-01-27T04:46:55.578Z,99602.13
2023-01-27T04:49:27.137Z,99603.53
2023-01-27T04:51:57.251Z,99603.66
2023-01-27T04:54:25.967Z,99604.66
2023-01-27T04:56:59.408Z,99601.19
2023-01-27T04:59:28.293Z,99603.78
2023-01-27T05:01:57.078Z,99599.38
2023-01-27T05:04:26.683Z,99606.06
2023-01-27T05:06:56.822Z,99602.78
2023-01-27T05:09:25.262Z,99599.41
2023-01-27T05:11:54.517Z,99603.81
2023-01-27T05:14:24.041Z,99600.19
2023-01-27T05:16:52.671Z,99608.88
2023-01-27T05:19:21.055Z,99610.75
2023-01-27T05:21:49.706Z,99604.53
2023-01-27T05:24:19.833Z,99597.41
2023-01-27T05:26:48.199Z,99614.91
2023-01-27T05:29:16.293Z,99603.69
2023-01-27T05:31:45.290Z,99613.97
2023-01-27T05:34:14.040Z,99608.03
2023-01-27T05:36:42.523Z,99613.28
2023-01-27T05:39:12.617Z,99609.91
2023-01-27T05:41:45.865Z,99615.00
2023-01-27T05:44:15.758Z,99607.06
2023-01-27T05:46:43.951Z,99606.91
2023-01-27T05:49:12.308Z,99612.31
2023-01-27T05:51:41.337Z,99615.66
2023-01-27T05:54:10.306Z,99609.78
2023-01-27T05:56:40.893Z,99617.53
2023-01-27T05:59:11.761Z,99624.50
2023-01-27T06:01:40.279Z,99622.66
2023-01-27T06:04:11.598Z,99627.09
2023-01-27T06:06:40.279Z,99635.81
2023-01-27T06:09:08.467Z,99634.97
2023-01-27T06:11:36.552Z,99633.25
2023-01-27T06:14:05.005Z,99636.47
2023-01-27T06:16:35.263Z,99640.84
2023-01-27T06:19:03.741Z,99643.41
2023-01-27T06:21:32.900Z,99639.09
2023-01-27T06:24:01.616Z,99643.28
2023-01-27T06:26:29.788Z,99638.00
2023-01-27T06:28:58.893Z,99648.59
2023-01-27T06:31:27.718Z,99642.63
2023-01-27T06:33:57.583Z,99646.97
2023-01-27T06:36:25.844Z,99638.31
2023-01-27T06:38:53.914Z,99653.88
2023-01-27T06:41:22.449Z,99645.25
2023-01-27T06:43:50.578Z,99650.59
2023-01-27T06:46:18.692Z,99641.94
2023-01-27T06:48:46.938Z,99653.19
2023-01-27T06:51:16.745Z,99654.72
2023-01-27T06:53:45.321Z,99659.25
2023-01-27T06:56:15.682Z,99651.47
2023-01-27T06:58:44.975Z,99669.59
2023-01-27T07:01:15.174Z,99656.59
2023-01-27T07:03:46.600Z,99657.34
2023-01-27T07:06:19.169Z,99661.66
2023-01-27T07:08:50.613Z,99671.25
2023-01-27T07:11:19.978Z,99658.91
2023-01-27T07:13:48.402Z,99666.84
2023-01-27T07:16:16.851Z,99672.84
2023-01-27T07:18:46.742Z,99670.13
2023-01-27T07:21:17.163Z,99671.28
2023-01-27T07:23:45.320Z,99657.13
2023-01-27T07:26:24.570Z,99675.53
2023-01-27T07:28:53.978Z,99665.88
2023-01-27T07:31:24.120Z,99676.41
2023-01-27T07:33:55.145Z,99661.59
2023-01-27T07:36:26.465Z,99674.56
2023-01-27T07:38:54.662Z,99665.09
2023-01-27T07:41:25.029Z,99668.56
2023-01-27T07:43:53.265Z,99674.31
2023-01-27T07:46:21.724Z,99683.31
2023-01-27T07:48:50.216Z,99686.75
2023-01-27T07:51:18.316Z,99685.91
2023-01-27T07:53:48.310Z,99682.34
2023-01-27T07:56:16.475Z,99688.28
2023-01-27T07:58:44.941Z,99690.22
2023-01-27T08:01:16.792Z,99684.03
2023-01-27T08:03:44.992Z,99689.88
2023-01-27T08:06:16.385Z,99697.72
2023-01-27T08:08:44.978Z,99688.13
2023-01-27T08:11:16.337Z,99703.00
2023-01-27T08:13:44.795Z,99716.88
2023-01-27T08:16:16.222Z,99711.63
2023-01-27T08:18:45.160Z,99718.56
2023-01-27T08:21:15.441Z,99722.06
2023-01-27T08:23:43.777Z,99723.75
2023-01-27T08:26:15.066Z,99724.72
2023-01-27T08:28:45.194Z,99732.53
2023-01-27T08:31:16.052Z,99728.03
2023-01-27T08:33:45.536Z,99727.31
2023-01-27T08:36:15.837Z,99735.94
2023-01-27T08:38:46.691Z,99736.19
2023-01-27T08:41:17.723Z,99741.34
2023-01-27T08:43:49.463Z,99756.72
2023-01-27T08:46:18.430Z,99752.56
2023-01-27T08:48:47.191Z,99752.50
2023-01-27T08:51:15.753Z,99760.28
2023-01-27T08:53:44.836Z,99759.38
2023-01-27T08:56:14.690Z,99764.56
2023-01-27T08:58:43.031Z,99760.19
2023-01-27T09:01:13.919Z,99766.13
2023-01-27T09:03:42.307Z,99769.72
2023-01-27T09:06:12.751Z,99764.38
2023-01-27T09:08:41.365Z,99762.69
2023-01-27T09:11:11.776Z,99761.84
2023-01-27T09:13:39.840Z,99768.78
2023-01-27T09:16:08.740Z,99770.38
2023-01-27T09:18:38.556Z,99758.16
2023-01-27T09:21:08.004Z,99765.09
2023-01-27T09:23:36.240Z,99766.88
2023-01-27T09:26:04.759Z,99771.81
2023-01-27T09:28:33.121Z,99775.31
2023-01-27T09:31:02.099Z,99771.66
2023-01-27T09:33:30.463Z,99768.25
2023-01-27T09:36:08.159Z,99775.19
2023-01-27T09:38:41.847Z,99770.63
2023-01-27T09:41:30.220Z,99766.72
2023-01-27T09:44:17.357Z,99773.06
2023-01-27T09:47:04.070Z,99769.97
2023-01-27T09:49:48.295Z,99768.03
2023-01-27T09:52:46.822Z,99775.19
2023-01-27T09:55:23.517Z,99778.50
2023-01-27T09:58:02.977Z,99775.81
2023-01-27T10:00:53.709Z,99780.28
2023-01-27T10:03:43.663Z,99774.91
2023-01-27T10:06:43.477Z,99775.88
2023-01-27T10:09:40.656Z,99770.56
2023-01-27T10:12:24.794Z,99779.19
2023-01-27T10:15:09.265Z,99769.78
2023-01-27T10:17:50.290Z,99777.44
2023-01-27T10:20:31.180Z,99774.66
2023-01-27T10:23:10.806Z,99768.78
2023-01-27T10:25:54.669Z,99773.91
2023-01-27T10:28:26.294Z,99774.09
2023-01-27T10:31:03.711Z,99764.56
2023-01-27T10:33:47.803Z,99766.72
2023-01-27T10:36:26.505Z,99765.03
2023-01-27T10:39:10.427Z,99766.66
2023-01-27T10:41:50.882Z,99764.91
2023-01-27T10:44:34.955Z,99775.19
2023-01-27T10:47:13.521Z,99773.53
2023-01-27T10:49:49.639Z,99768.91
2023-01-27T10:52:21.971Z,99768.81
2023-01-27T10:54:57.293Z,99772.47
2023-01-27T10:57:32.616Z,99776.69
2023-01-27T11:00:41.885Z,99768.44
2023-01-27T11:03:02.375Z,99781.84
2023-01-27T11:05:35.575Z,99780.69
2023-01-27T11:08:09.747Z,99777.88
2023-01-27T11:11:03.717Z,99775.56
2023-01-27T11:13:34.697Z,99768.16
2023-01-27T11:16:06.178Z,99782.09
2023-01-27T11:18:38.959Z,99778.81
2023-01-27T11:21:11.031Z,99778.00
2023-01-27T11:23:43.462Z,99780.63
2023-01-27T11:26:27.683Z,99779.72
2023-01-27T11:29:20.480Z,99782.41
2023-01-27T11:31:56.614Z,99780.44
2023-01-27T11:34:32.903Z,99766.16
2023-01-27T11:37:02.774Z,99768.63
2023-01-27T11:39:34.162Z,99768.94
2023-01-27T11:42:02.636Z,99761.78
2023-01-27T11:44:35.504Z,99761.78
2023-01-27T11:47:08.189Z,99757.41
2023-01-27T11:49:42.613Z,99754.44
2023-01-27T11:52:14.233Z,99754.59
2023-01-27T11:54:47.002Z,99748.28
2023-01-27T11:57:21.677Z,99744.34
2023-01-27T11:59:58.586Z,99740.16
2023-01-27T12:02:35.655Z,99734.34
2023-01-27T12:05:10.102Z,99739.44
2023-01-27T12:07:47.600Z,99728.88
2023-01-27T12:10:32.079Z,99729.72
2023-01-27T12:13:03.060Z,99731.59
2023-01-27T12:15:33.494Z,99726.88
2023-01-27T12:18:04.937Z,99720.84
2023-01-27T12:20:38.648Z,99723.34
2023-01-27T12:23:21.770Z,99721.19
2023-01-27T12:25:56.189Z,99725.88
2023-01-27T12:28:35.162Z,99719.16
2023-01-27T12:31:11.875Z,99722.69
2023-01-27T12:33:45.545Z,99713.06
2023-01-27T12:36:18.380Z,99714.44
2023-01-27T12:38:52.343Z,99714.16
2023-01-27T12:41:26.691Z,99710.88
2023-01-27T12:43:57.144Z,99713.78
2023-01-27T12:46:28.369Z,99713.22
2023-01-27T12:49:07.233Z,99710.09
2023-01-27T12:51:42.258Z,99709.09
2023-01-27T12:54:22.000Z,99708.28
2023-01-27T12:56:52.029Z,99707.38
2023-01-27T12:59:21.647Z,99707.31
2023-01-27T13:02:03.710Z,99709.44
2023-01-27T13:04:32.396Z,99705.91
2023-01-27T13:07:09.794Z,99711.41
2023-01-27T13:09:47.421Z,99707.84
2023-01-27T13:12:21.836Z,99708.44
2023-01-27T13:14:54.396Z,99711.88
2023-01-27T13:17:43.682Z,99711.06
2023-01-27T13:20:23.355Z,99710.91
2023-01-27T13:22:55.092Z,99713.56
2023-01-27T13:25:26.166Z,99711.91
2023-01-27T13:28:01.004Z,99710.34
2023-01-27T13:30:35.689Z,99714.28
2023-01-27T13:33:22.187Z,99711.75
2023-01-27T13:35:59.246Z,99716.03
2023-01-27T13:38:36.615Z,99723.03
2023-01-27T13:41:15.430Z,99720.31
2023-01-27T13:43:59.026Z,99721.13
2023-01-27T13:46:30.811Z,99717.22
2023-01-27T13:49:13.875Z,99716.19
2023-01-27T13:51:42.161Z,99715.19
2023-01-27T13:54:15.675Z,99713.25
2023-01-27T13:56:56.348Z,99724.72
2023-01-27T13:59:39.512Z,99716.72
2023-01-27T14:02:32.382Z,99712.28
2023-01-27T14:05:21.307Z,99707.84
2023-01-27T14:07:59.686Z,99714.66
2023-01-27T14:10:36.557Z,99709.53
2023-01-27T14:13:31.290Z,99709.50
2023-01-27T14:16:07.669Z,99714.09
2023-01-27T14:18:39.283Z,99719.34
2023-01-27T14:21:25.009Z,99722.84
2023-01-27T14:24:08.549Z,99731.66
2023-01-27T14:26:48.337Z,99731.63
2023-01-27T14:29:29.697Z,99734.94
2023-01-27T14:32:04.467Z,99732.19
2023-01-27T14:34:42.132Z,99737.81
2023-01-27T14:37:25.162Z,99748.34
2023-01-27T14:40:09.385Z,99761.59
2023-01-27T14:42:43.561Z,99756.25
2023-01-27T14:45:21.867Z,99757.97
2023-01-27T14:47:58.528Z,99756.00
2023-01-27T14:50:35.010Z,99761.34
2023-01-27T14:53:24.450Z,99758.97
2023-01-27T14:55:59.951Z,99757.03
2023-01-27T14:58:56.172Z,99760.47
2023-01-27T15:01:36.188Z,99770.28
2023-01-27T15:04:40.522Z,99765.84
2023-01-27T15:07:16.346Z,99773.53
2023-01-27T15:10:25.051Z,99771.91
2023-01-27T15:13:18.710Z,99777.88
2023-01-27T15:16:21.045Z,99782.56
2023-01-27T15:19:08.576Z,99783.28
2023-01-27T15:22:31.171Z,99782.81
2023-01-27T15:25:18.333Z,99785.25
2023-01-27T15:27:59.972Z,99783.53
2023-01-27T15:30:30.277Z,99788.06
2023-01-27T15:32:58.956Z,99788.22
2023-01-27T15:35:41.336Z,99790.84
2023-01-27T15:38:34.715Z,99792.59
2023-01-27T15:41:13.865Z,99793.66
2023-01-27T15:44:05.069Z,99808.47
2023-01-27T15:46:36.329Z,99806.22
2023-01-27T15:49:06.050Z,99809.69
2023-01-27T15:51:37.894Z,99802.78
2023-01-27T15:54:07.420Z,99802.69
2023-01-27T15:56:44.270Z,99807.31
2023-01-27T15:59:17.463Z,99812.59
2023-01-27T16:01:49.017Z,99811.69
2023-01-27T16:04:23.369Z,99820.50
2023-01-27T16:07:02.215Z,99822.41
2023-01-27T16:09:43.540Z,99824.06
2023-01-27T16:12:30.459Z,99827.59
2023-01-27T16:15:33.668Z,99833.78
2023-01-27T16:18:26.182Z,99834.66
2023-01-27T16:21:02.304Z,99837.88
2023-01-27T16:23:44.247Z,99840.81
2023-01-27T16:26:29.190Z,99835.56
2023-01-27T16:29:07.642Z,99841.72
2023-01-27T16:31:40.500Z,99845.09
2023-01-27T16:34:19.174Z,99851.41
2023-01-27T16:36:48.308Z,99853.19
2023-01-27T16:39:32.126Z,99849.63
2023-01-27T16:42:01.197Z,99860.03
2023-01-27T16:44:39.916Z,99848.75
2023-01-27T16:47:22.934Z,99844.50
2023-01-27T16:49:56.655Z,99851.38
2023-01-27T16:52:41.877Z,99862.00
2023-01-27T16:55:23.018Z,99850.78
2023-01-27T16:57:54.255Z,99858.28
2023-01-27T17:00:25.174Z,99866.22
2023-01-27T17:02:57.435Z,99866.34
2023-01-27T17:05:25.977Z,99858.59
2023-01-27T17:08:04.547Z,99860.34
2023-01-27T17:10:35.040Z,99865.41
2023-01-27T17:13:04.557Z,99859.41
2023-01-27T17:15:38.102Z,99864.56
2023-01-27T17:18:10.555Z,99862.16
2023-01-27T17:20:44.717Z,99872.50
2023-01-27T17:23:24.187Z,99866.47
2023-01-27T17:25:57.912Z,99867.38
2023-01-27T17:28:28.975Z,99877.06
2023-01-27T17:31:07.981Z,99870.78
2023-01-27T17:33:39.416Z,99873.44
2023-01-27T17:36:12.317Z,99865.66
2023-01-27T17:38:48.091Z,99870.66
2023-01-27T17:41:32.220Z,99876.06
2023-01-27T17:44:06.521Z,99875.94
2023-01-27T17:46:35.810Z,99880.31
2023-01-27T17:49:09.595Z,99887.25
2023-01-27T17:51:41.563Z,99889.97
2023-01-27T17:54:21.940Z,99889.16
2023-01-27T17:56:53.288Z,99891.75
2023-01-27T17:59:23.325Z,99892.56
2023-01-27T18:01:55.037Z,99901.31
2023-01-27T18:04:26.815Z,99894.47
2023-01-27T18:06:55.586Z,99894.38
2023-01-27T18:09:29.739Z,99896.34
2023-01-27T18:12:00.624Z,99896.84
2023-01-27T18:17:23.260Z,99899.91
2023-01-27T18:19:54.637Z,99904.34
2023-01-27T18:22:26.129Z,99902.47
2023-01-27T18:24:57.260Z,99907.63
2023-01-27T18:27:29.171Z,99909.41
2023-01-27T18:30:04.500Z,99906.91
2023-01-27T18:32:42.613Z,99912.16
2023-01-27T18:35:28.084Z,99913.06
2023-01-27T18:38:00.344Z,99906.97
2023-01-27T18:40:33.737Z,99916.63
2023-01-27T18:43:04.051Z,99913.19
2023-01-27T18:45:32.531Z,99909.75
2023-01-27T18:48:01.126Z,99916.66
2023-01-27T18:50:40.972Z,99916.78
2023-01-27T18:53:16.331Z,99910.50
2023-01-27T18:55:45.824Z,99926.13
2023-01-27T18:58:18.084Z,99918.44
2023-01-27T19:00:51.205Z,99925.19
2023-01-27T19:03:22.428Z,99932.41
2023-01-27T19:05:53.391Z,99935.03
2023-01-27T19:08:23.564Z,99928.91
2023-01-27T19:10:52.940Z,99929.69
2023-01-27T19:13:22.121Z,99936.88
2023-01-27T19:15:54.528Z,99936.78
2023-01-27T19:18:26.675Z,99936.81
2023-01-27T19:20:56.644Z,99943.66
2023-01-27T19:23:25.303Z,99944.69
2023-01-27T19:25:55.984Z,99947.38
2023-01-27T19:28:29.884Z,99945.38
2023-01-27T19:30:58.285Z,99942.88
2023-01-27T19:33:28.653Z,99934.25
2023-01-27T19:36:03.015Z,99941.19
2023-01-27T19:38:31.619Z,99939.63
2023-01-27T19:40:59.867Z,99939.66
2023-01-27T19:43:28.347Z,99944.91
2023-01-27T19:45:56.995Z,99946.50
2023-01-27T19:48:26.601Z,99939.53
2023-01-27T19:50:55.398Z,99943.97
2023-01-27T19:53:24.984Z,99948.34
2023-01-27T19:55:59.100Z,99950.00
2023-01-27T19:58:29.419Z,99940.53
2023-01-27T20:00:57.982Z,99952.75
2023-01-27T20:03:26.921Z,99951.06
2023-01-27T20:05:55.243Z,99949.25
2023-01-27T20:08:25.104Z,99947.50
2023-01-27T20:10:53.595Z,99952.78
2023-01-27T20:13:24.068Z,99945.81
2023-01-27T20:15:52.627Z,99945.84
2023-01-27T20:18:23.828Z,99962.44
2023-01-27T20:20:53.628Z,99962.34
2023-01-27T20:23:24.714Z,99954.59
2023-01-27T20:25:54.028Z,99951.09
2023-01-27T20:28:23.343Z,99959.06
2023-01-27T20:30:51.965Z,99957.22
2023-01-27T20:33:21.294Z,99963.44
2023-01-27T20:35:49.648Z,99963.53
2023-01-27T20:38:18.097Z,99963.59
2023-01-27T20:40:48.103Z,99970.53
2023-01-27T20:43:26.549Z,99969.56
2023-01-27T20:46:07.075Z,99971.38
2023-01-27T20:48:35.621Z,99970.38
2023-01-27T20:51:07.456Z,99976.78
2023-01-27T20:53:41.840Z,99979.38
2023-01-27T20:56:14.870Z,99991.59
2023-01-27T20:58:50.547Z,99989.00
2023-01-27T21:01:23.030Z,99988.84
2023-01-27T21:03:52.446Z,99987.22
2023-01-27T21:06:21.100Z,99990.78
2023-01-27T21:08:49.829Z,99996.72
2023-01-27T21:11:21.447Z,100002.09
2023-01-27T21:13:50.364Z,99991.69
2023-01-27T21:16:19.216Z,99997.00
2023-01-27T21:18:47.760Z,99998.50
2023-01-27T21:21:23.438Z,99999.44
2023-01-27T21:23:51.948Z,99989.09
2023-01-27T21:26:25.640Z,99991.53
2023-01-27T21:28:54.274Z,99987.56
2023-01-27T21:31:24.460Z,99994.28
2023-01-27T21:33:53.286Z,99993.66
2023-01-27T21:36:22.086Z,99991.94
2023-01-27T21:38:53.989Z,99988.56
2023-01-27T21:41:42.723Z,99985.81
2023-01-27T21:44:35.147Z,99997.09
2023-01-27T21:47:03.414Z,99990.38
2023-01-27T21:49:31.864Z,99992.06
2023-01-27T21:52:00.246Z,99995.53
2023-01-27T21:54:34.499Z,99995.59
2023-01-27T21:57:04.511Z,99986.03
2023-01-27T21:59:34.487Z,99980.88
2023-01-27T22:02:02.924Z,99991.31
2023-01-27T22:04:31.310Z,99991.41
2023-01-27T22:06:59.318Z,99987.03
2023-01-27T22:09:27.490Z,99990.44
2023-01-27T22:11:56.652Z,99987.03
2023-01-27T22:14:26.925Z,99991.25
2023-01-27T22:16:55.206Z,100002.69
2023-01-27T22:19:23.787Z,99986.97
2023-01-27T22:21:52.409Z,99987.81
2023-01-27T22:24:22.543Z,99991.41
2023-01-27T22:26:50.731Z,100000.09
2023-01-27T22:29:19.333Z,99995.78
2023-01-27T22:31:50.805Z,99990.44
2023-01-27T22:34:19.267Z,99995.88
2023-01-27T22:36:51.857Z,99987.91
2023-01-27T22:39:20.962Z,99993.28
2023-01-27T22:41:50.532Z,99992.22
2023-01-27T22:44:19.759Z,99990.81
2023-01-27T22:46:50.843Z,99992.50
2023-01-27T22:49:19.184Z,99988.09
2023-01-27T22:51:49.139Z,99975.03
2023-01-27T22:54:17.361Z,99984.84
2023-01-27T22:56:45.655Z,99984.78
2023-01-27T22:59:15.044Z,99984.66
2023-01-27T23:01:44.547Z,99990.72
2023-01-27T23:04:17.002Z,99993.44
2023-01-27T23:06:45.628Z,99991.75
2023-01-27T23:09:14.457Z,99990.88
2023-01-27T23:11:42.793Z,99990.84
2023-01-27T23:14:11.082Z,99996.81
2023-01-27T23:16:39.501Z,99996.94
2023-01-27T23:19:08.020Z,99996.78
2023-01-27T23:21:37.844Z,100000.28
2023-01-27T23:24:07.691Z,99990.69
2023-01-27T23:26:37.885Z,99997.56
2023-01-27T23:29:22.887Z,99999.31
2023-01-27T23:31:53.045Z,100001.19
2023-01-27T23:34:21.905Z,99997.63
2023-01-27T23:36:52.399Z,100001.09
2023-01-27T23:39:23.327Z,100002.84
2023-01-27T23:41:51.934Z,100005.59
2023-01-27T23:44:20.639Z,100001.09
2023-01-27T23:46:48.857Z,99999.44
2023-01-27T23:49:17.471Z,100009.06
2023-01-27T23:51:45.525Z,100007.31
2023-01-27T23:54:15.176Z,100001.31
2023-01-27T23:56:43.543Z,100000.44
2023-01-27T23:59:13.408Z,100003.81
